sensor_id;sensor_type;location;lat;lon;timestamp;temperature;humidity
23377;DHT22;14353;46.070;13.222;2023-03-23T00:01:13;22.40;42.60
23377;DHT22;14353;46.070;13.222;2023-03-23T00:03:40;22.40;42.70
23377;DHT22;14353;46.070;13.222;2023-03-23T00:06:07;22.40;43.40
23377;DHT22;14353;46.070;13.222;2023-03-23T00:08:36;22.40;42.70
23377;DHT22;14353;46.070;13.222;2023-03-23T00:11:17;22.40;42.70
23377;DHT22;14353;46.070;13.222;2023-03-23T00:13:45;22.40;42.70
23377;DHT22;14353;46.070;13.222;2023-03-23T00:16:12;22.40;42.80
23377;DHT22;14353;46.070;13.222;2023-03-23T00:18:48;22.30;42.70
23377;DHT22;14353;46.070;13.222;2023-03-23T00:21:31;22.40;42.80
23377;DHT22;14353;46.070;13.222;2023-03-23T00:24:06;22.30;42.70
23377;DHT22;14353;46.070;13.222;2023-03-23T00:26:34;22.30;42.80
23377;DHT22;14353;46.070;13.222;2023-03-23T00:29:03;22.30;42.80
23377;DHT22;14353;46.070;13.222;2023-03-23T00:31:29;22.30;42.80
23377;DHT22;14353;46.070;13.222;2023-03-23T00:34:01;22.30;42.90
23377;DHT22;14353;46.070;13.222;2023-03-23T00:36:30;22.30;42.90
23377;DHT22;14353;46.070;13.222;2023-03-23T00:38:56;22.30;42.90
23377;DHT22;14353;46.070;13.222;2023-03-23T00:41:26;22.30;42.90
23377;DHT22;14353;46.070;13.222;2023-03-23T00:43:54;22.20;42.80
23377;DHT22;14353;46.070;13.222;2023-03-23T00:46:20;22.20;42.80
23377;DHT22;14353;46.070;13.222;2023-03-23T00:48:46;22.20;42.90
23377;DHT22;14353;46.070;13.222;2023-03-23T00:51:12;22.20;42.90
23377;DHT22;14353;46.070;13.222;2023-03-23T00:53:41;22.20;42.90
23377;DHT22;14353;46.070;13.222;2023-03-23T00:56:08;22.20;43.00
23377;DHT22;14353;46.070;13.222;2023-03-23T00:58:34;22.20;42.90
23377;DHT22;14353;46.070;13.222;2023-03-23T01:01:00;22.20;43.00
23377;DHT22;14353;46.070;13.222;2023-03-23T01:03:26;22.20;43.00
23377;DHT22;14353;46.070;13.222;2023-03-23T01:05:54;22.20;43.00
23377;DHT22;14353;46.070;13.222;2023-03-23T01:08:21;22.20;43.00
23377;DHT22;14353;46.070;13.222;2023-03-23T01:10:47;22.20;43.00
23377;DHT22;14353;46.070;13.222;2023-03-23T01:13:14;22.20;43.10
23377;DHT22;14353;46.070;13.222;2023-03-23T01:15:41;22.20;43.10
23377;DHT22;14353;46.070;13.222;2023-03-23T01:18:07;22.20;43.10
23377;DHT22;14353;46.070;13.222;2023-03-23T01:20:35;22.10;43.00
23377;DHT22;14353;46.070;13.222;2023-03-23T01:23:02;22.10;43.00
23377;DHT22;14353;46.070;13.222;2023-03-23T01:25:29;22.10;43.10
23377;DHT22;14353;46.070;13.222;2023-03-23T01:27:56;22.10;43.50
23377;DHT22;14353;46.070;13.222;2023-03-23T01:30:22;22.10;43.10
23377;DHT22;14353;46.070;13.222;2023-03-23T01:32:48;22.10;43.10
23377;DHT22;14353;46.070;13.222;2023-03-23T01:35:13;22.10;43.10
23377;DHT22;14353;46.070;13.222;2023-03-23T01:37:39;22.10;43.10
23377;DHT22;14353;46.070;13.222;2023-03-23T01:40:06;22.10;43.20
23377;DHT22;14353;46.070;13.222;2023-03-23T01:42:34;22.10;43.20
23377;DHT22;14353;46.070;13.222;2023-03-23T01:47:46;22.10;43.20
23377;DHT22;14353;46.070;13.222;2023-03-23T01:50:13;22.00;43.20
23377;DHT22;14353;46.070;13.222;2023-03-23T01:52:38;22.00;43.20
23377;DHT22;14353;46.070;13.222;2023-03-23T01:55:05;22.00;43.20
23377;DHT22;14353;46.070;13.222;2023-03-23T01:57:31;22.00;43.20
23377;DHT22;14353;46.070;13.222;2023-03-23T02:00:01;22.00;43.20
23377;DHT22;14353;46.070;13.222;2023-03-23T02:02:34;22.00;43.30
23377;DHT22;14353;46.070;13.222;2023-03-23T02:05:06;22.00;43.70
23377;DHT22;14353;46.070;13.222;2023-03-23T02:07:34;22.00;43.30
23377;DHT22;14353;46.070;13.222;2023-03-23T02:10:00;22.00;43.30
23377;DHT22;14353;46.070;13.222;2023-03-23T02:12:26;22.00;43.30
23377;DHT22;14353;46.070;13.222;2023-03-23T02:14:52;22.00;43.30
23377;DHT22;14353;46.070;13.222;2023-03-23T02:17:22;22.00;43.30
23377;DHT22;14353;46.070;13.222;2023-03-23T02:20:17;22.00;43.30
23377;DHT22;14353;46.070;13.222;2023-03-23T02:34:17;21.90;43.90
23377;DHT22;14353;46.070;13.222;2023-03-23T02:36:52;21.90;43.30
23377;DHT22;14353;46.070;13.222;2023-03-23T02:39:26;21.90;43.40
23377;DHT22;14353;46.070;13.222;2023-03-23T02:42:07;21.90;43.30
23377;DHT22;14353;46.070;13.222;2023-03-23T02:44:37;21.90;43.40
23377;DHT22;14353;46.070;13.222;2023-03-23T02:47:08;21.90;43.30
23377;DHT22;14353;46.070;13.222;2023-03-23T02:49:39;21.90;43.40
23377;DHT22;14353;46.070;13.222;2023-03-23T02:52:12;21.90;43.40
23377;DHT22;14353;46.070;13.222;2023-03-23T02:54:46;21.90;44.10
23377;DHT22;14353;46.070;13.222;2023-03-23T02:57:12;21.90;43.40
23377;DHT22;14353;46.070;13.222;2023-03-23T02:59:39;21.90;43.40
23377;DHT22;14353;46.070;13.222;2023-03-23T03:02:27;21.90;43.50
23377;DHT22;14353;46.070;13.222;2023-03-23T03:07:30;21.80;43.40
23377;DHT22;14353;46.070;13.222;2023-03-23T03:10:12;21.80;43.50
23377;DHT22;14353;46.070;13.222;2023-03-23T03:12:48;21.80;43.40
23377;DHT22;14353;46.070;13.222;2023-03-23T03:15:26;21.80;43.40
23377;DHT22;14353;46.070;13.222;2023-03-23T03:20:27;21.80;43.50
23377;DHT22;14353;46.070;13.222;2023-03-23T03:22:55;21.80;43.50
23377;DHT22;14353;46.070;13.222;2023-03-23T03:25:22;21.80;43.50
23377;DHT22;14353;46.070;13.222;2023-03-23T03:27:49;21.80;43.50
23377;DHT22;14353;46.070;13.222;2023-03-23T03:30:21;21.80;43.50
23377;DHT22;14353;46.070;13.222;2023-03-23T03:32:51;21.80;43.60
23377;DHT22;14353;46.070;13.222;2023-03-23T03:35:21;21.80;43.50
23377;DHT22;14353;46.070;13.222;2023-03-23T03:37:47;21.80;43.60
23377;DHT22;14353;46.070;13.222;2023-03-23T03:40:15;21.80;43.60
23377;DHT22;14353;46.070;13.222;2023-03-23T03:42:43;21.70;43.50
23377;DHT22;14353;46.070;13.222;2023-03-23T03:45:19;21.70;43.60
23377;DHT22;14353;46.070;13.222;2023-03-23T03:47:46;21.70;43.60
23377;DHT22;14353;46.070;13.222;2023-03-23T03:50:11;21.70;43.50
23377;DHT22;14353;46.070;13.222;2023-03-23T03:52:38;21.70;43.60
23377;DHT22;14353;46.070;13.222;2023-03-23T03:55:06;21.70;43.60
23377;DHT22;14353;46.070;13.222;2023-03-23T03:57:33;21.70;43.60
23377;DHT22;14353;46.070;13.222;2023-03-23T03:59:59;21.70;43.60
23377;DHT22;14353;46.070;13.222;2023-03-23T04:02:24;21.70;43.70
23377;DHT22;14353;46.070;13.222;2023-03-23T04:04:50;21.70;43.60
23377;DHT22;14353;46.070;13.222;2023-03-23T04:07:18;21.70;43.70
23377;DHT22;14353;46.070;13.222;2023-03-23T04:09:45;21.70;43.70
23377;DHT22;14353;46.070;13.222;2023-03-23T04:12:14;21.70;43.70
23377;DHT22;14353;46.070;13.222;2023-03-23T04:14:40;21.70;43.70
23377;DHT22;14353;46.070;13.222;2023-03-23T04:17:05;21.60;43.70
23377;DHT22;14353;46.070;13.222;2023-03-23T04:19:35;21.70;43.70
23377;DHT22;14353;46.070;13.222;2023-03-23T04:22:02;21.60;43.70
23377;DHT22;14353;46.070;13.222;2023-03-23T04:24:28;21.60;43.70
23377;DHT22;14353;46.070;13.222;2023-03-23T04:26:57;21.60;43.70
23377;DHT22;14353;46.070;13.222;2023-03-23T04:29:23;21.60;43.70
23377;DHT22;14353;46.070;13.222;2023-03-23T04:31:49;21.60;43.80
23377;DHT22;14353;46.070;13.222;2023-03-23T04:34:16;21.60;43.70
23377;DHT22;14353;46.070;13.222;2023-03-23T04:36:42;21.60;43.80
23377;DHT22;14353;46.070;13.222;2023-03-23T04:39:08;21.60;43.80
23377;DHT22;14353;46.070;13.222;2023-03-23T04:41:39;21.60;43.80
23377;DHT22;14353;46.070;13.222;2023-03-23T04:44:06;21.60;43.80
23377;DHT22;14353;46.070;13.222;2023-03-23T04:46:32;21.60;43.80
23377;DHT22;14353;46.070;13.222;2023-03-23T04:48:58;21.60;43.80
23377;DHT22;14353;46.070;13.222;2023-03-23T04:51:25;21.60;43.80
23377;DHT22;14353;46.070;13.222;2023-03-23T04:53:52;21.60;43.80
23377;DHT22;14353;46.070;13.222;2023-03-23T04:56:18;21.50;43.80
23377;DHT22;14353;46.070;13.222;2023-03-23T04:58:45;21.50;43.90
23377;DHT22;14353;46.070;13.222;2023-03-23T05:01:11;21.50;43.80
23377;DHT22;14353;46.070;13.222;2023-03-23T05:03:40;21.50;43.80
23377;DHT22;14353;46.070;13.222;2023-03-23T05:06:06;21.50;43.80
23377;DHT22;14353;46.070;13.222;2023-03-23T05:08:33;21.50;43.80
23377;DHT22;14353;46.070;13.222;2023-03-23T05:11:00;21.50;43.90
23377;DHT22;14353;46.070;13.222;2023-03-23T05:13:27;21.50;43.90
23377;DHT22;14353;46.070;13.222;2023-03-23T05:15:54;21.50;43.90
23377;DHT22;14353;46.070;13.222;2023-03-23T05:18:19;21.50;43.90
23377;DHT22;14353;46.070;13.222;2023-03-23T05:20:49;21.50;43.90
23377;DHT22;14353;46.070;13.222;2023-03-23T05:23:18;21.50;43.90
23377;DHT22;14353;46.070;13.222;2023-03-23T05:25:55;21.50;43.90
23377;DHT22;14353;46.070;13.222;2023-03-23T05:28:22;21.50;43.80
23377;DHT22;14353;46.070;13.222;2023-03-23T05:30:48;21.50;43.80
23377;DHT22;14353;46.070;13.222;2023-03-23T05:33:14;21.50;43.80
23377;DHT22;14353;46.070;13.222;2023-03-23T05:35:40;21.50;43.80
23377;DHT22;14353;46.070;13.222;2023-03-23T05:38:05;21.50;43.80
23377;DHT22;14353;46.070;13.222;2023-03-23T05:40:31;21.50;43.80
23377;DHT22;14353;46.070;13.222;2023-03-23T05:42:57;21.50;43.70
23377;DHT22;14353;46.070;13.222;2023-03-23T05:45:25;21.50;43.70
23377;DHT22;14353;46.070;13.222;2023-03-23T05:47:51;21.60;43.70
23377;DHT22;14353;46.070;13.222;2023-03-23T05:50:17;21.50;43.70
23377;DHT22;14353;46.070;13.222;2023-03-23T05:52:44;21.50;43.70
23377;DHT22;14353;46.070;13.222;2023-03-23T05:55:10;21.60;43.60
23377;DHT22;14353;46.070;13.222;2023-03-23T05:57:36;21.60;43.60
23377;DHT22;14353;46.070;13.222;2023-03-23T06:00:03;21.60;43.60
23377;DHT22;14353;46.070;13.222;2023-03-23T06:02:37;21.60;43.60
23377;DHT22;14353;46.070;13.222;2023-03-23T06:05:03;21.60;43.50
23377;DHT22;14353;46.070;13.222;2023-03-23T06:07:29;21.60;43.40
23377;DHT22;14353;46.070;13.222;2023-03-23T06:09:55;21.60;43.40
23377;DHT22;14353;46.070;13.222;2023-03-23T06:12:21;21.60;43.30
23377;DHT22;14353;46.070;13.222;2023-03-23T06:14:48;21.70;43.40
23377;DHT22;14353;46.070;13.222;2023-03-23T06:17:15;21.70;43.30
23377;DHT22;14353;46.070;13.222;2023-03-23T06:19:42;21.70;43.20
23377;DHT22;14353;46.070;13.222;2023-03-23T06:22:08;21.70;43.20
23377;DHT22;14353;46.070;13.222;2023-03-23T06:24:34;21.70;43.10
23377;DHT22;14353;46.070;13.222;2023-03-23T06:26:59;21.80;43.10
23377;DHT22;14353;46.070;13.222;2023-03-23T06:29:26;21.80;43.20
23377;DHT22;14353;46.070;13.222;2023-03-23T06:31:55;21.80;43.10
23377;DHT22;14353;46.070;13.222;2023-03-23T06:34:22;21.80;43.10
23377;DHT22;14353;46.070;13.222;2023-03-23T06:36:48;21.90;43.20
23377;DHT22;14353;46.070;13.222;2023-03-23T06:39:14;21.90;44.00
23377;DHT22;14353;46.070;13.222;2023-03-23T06:41:40;21.90;44.60
23377;DHT22;14353;46.070;13.222;2023-03-23T06:44:06;22.00;45.40
23377;DHT22;14353;46.070;13.222;2023-03-23T06:46:32;22.00;45.30
23377;DHT22;14353;46.070;13.222;2023-03-23T06:48:58;22.10;45.00
23377;DHT22;14353;46.070;13.222;2023-03-23T06:51:23;22.10;45.00
23377;DHT22;14353;46.070;13.222;2023-03-23T06:53:50;22.20;45.20
23377;DHT22;14353;46.070;13.222;2023-03-23T06:56:16;22.20;44.70
23377;DHT22;14353;46.070;13.222;2023-03-23T06:58:42;22.20;44.10
23377;DHT22;14353;46.070;13.222;2023-03-23T07:01:08;22.20;43.80
23377;DHT22;14353;46.070;13.222;2023-03-23T07:03:35;22.20;43.80
23377;DHT22;14353;46.070;13.222;2023-03-23T07:06:02;22.20;43.80
23377;DHT22;14353;46.070;13.222;2023-03-23T07:08:29;22.20;43.90
23377;DHT22;14353;46.070;13.222;2023-03-23T07:10:59;22.20;44.00
23377;DHT22;14353;46.070;13.222;2023-03-23T07:13:25;22.30;44.00
23377;DHT22;14353;46.070;13.222;2023-03-23T07:15:52;22.20;43.90
23377;DHT22;14353;46.070;13.222;2023-03-23T07:18:18;22.30;44.00
23377;DHT22;14353;46.070;13.222;2023-03-23T07:20:50;22.30;44.00
23377;DHT22;14353;46.070;13.222;2023-03-23T07:23:17;22.30;44.00
23377;DHT22;14353;46.070;13.222;2023-03-23T07:25:43;22.30;44.00
23377;DHT22;14353;46.070;13.222;2023-03-23T07:28:10;22.40;44.00
23377;DHT22;14353;46.070;13.222;2023-03-23T07:30:36;22.40;43.90
23377;DHT22;14353;46.070;13.222;2023-03-23T07:33:06;22.40;43.80
23377;DHT22;14353;46.070;13.222;2023-03-23T07:35:32;22.50;44.10
23377;DHT22;14353;46.070;13.222;2023-03-23T07:37:59;22.50;44.20
23377;DHT22;14353;46.070;13.222;2023-03-23T07:40:25;22.50;44.00
23377;DHT22;14353;46.070;13.222;2023-03-23T07:42:56;22.60;44.00
23377;DHT22;14353;46.070;13.222;2023-03-23T07:45:25;22.60;43.90
23377;DHT22;14353;46.070;13.222;2023-03-23T07:47:52;22.60;43.90
23377;DHT22;14353;46.070;13.222;2023-03-23T07:50:19;22.60;43.80
23377;DHT22;14353;46.070;13.222;2023-03-23T07:52:47;22.60;44.00
23377;DHT22;14353;46.070;13.222;2023-03-23T07:55:14;22.70;44.20
23377;DHT22;14353;46.070;13.222;2023-03-23T07:57:51;22.70;44.10
23377;DHT22;14353;46.070;13.222;2023-03-23T08:00:18;22.70;44.10
23377;DHT22;14353;46.070;13.222;2023-03-23T08:02:46;22.70;43.90
23377;DHT22;14353;46.070;13.222;2023-03-23T08:05:12;22.70;44.60
23377;DHT22;14353;46.070;13.222;2023-03-23T08:07:39;22.80;44.40
23377;DHT22;14353;46.070;13.222;2023-03-23T08:10:07;22.80;44.50
23377;DHT22;14353;46.070;13.222;2023-03-23T08:12:37;22.80;44.60
23377;DHT22;14353;46.070;13.222;2023-03-23T08:15:04;22.90;44.60
23377;DHT22;14353;46.070;13.222;2023-03-23T08:17:32;22.90;44.50
23377;DHT22;14353;46.070;13.222;2023-03-23T08:19:58;22.90;44.40
23377;DHT22;14353;46.070;13.222;2023-03-23T08:22:24;22.90;44.20
23377;DHT22;14353;46.070;13.222;2023-03-23T08:24:50;22.90;44.50
23377;DHT22;14353;46.070;13.222;2023-03-23T08:27:16;23.00;44.40
23377;DHT22;14353;46.070;13.222;2023-03-23T08:29:44;23.00;44.30
23377;DHT22;14353;46.070;13.222;2023-03-23T08:32:11;23.00;44.00
23377;DHT22;14353;46.070;13.222;2023-03-23T08:34:37;23.10;44.10
23377;DHT22;14353;46.070;13.222;2023-03-23T08:37:04;23.20;43.80
23377;DHT22;14353;46.070;13.222;2023-03-23T08:39:30;23.20;43.50
23377;DHT22;14353;46.070;13.222;2023-03-23T08:41:56;23.30;43.70
23377;DHT22;14353;46.070;13.222;2023-03-23T08:44:22;23.30;43.50
23377;DHT22;14353;46.070;13.222;2023-03-23T08:46:48;23.30;43.50
23377;DHT22;14353;46.070;13.222;2023-03-23T08:49:15;23.30;43.60
23377;DHT22;14353;46.070;13.222;2023-03-23T08:51:41;23.30;43.50
23377;DHT22;14353;46.070;13.222;2023-03-23T08:54:07;23.30;43.50
23377;DHT22;14353;46.070;13.222;2023-03-23T08:56:33;23.20;43.50
23377;DHT22;14353;46.070;13.222;2023-03-23T08:58:58;23.30;43.50
23377;DHT22;14353;46.070;13.222;2023-03-23T09:01:25;23.30;43.40
23377;DHT22;14353;46.070;13.222;2023-03-23T09:03:52;23.30;43.30
23377;DHT22;14353;46.070;13.222;2023-03-23T09:06:17;23.40;43.10
23377;DHT22;14353;46.070;13.222;2023-03-23T09:08:43;23.40;43.10
23377;DHT22;14353;46.070;13.222;2023-03-23T09:11:10;23.50;43.20
23377;DHT22;14353;46.070;13.222;2023-03-23T09:13:37;23.60;43.10
23377;DHT22;14353;46.070;13.222;2023-03-23T09:16:06;23.60;42.80
23377;DHT22;14353;46.070;13.222;2023-03-23T09:18:32;23.70;42.70
23377;DHT22;14353;46.070;13.222;2023-03-23T09:20:59;23.80;42.60
23377;DHT22;14353;46.070;13.222;2023-03-23T09:23:26;23.70;42.50
23377;DHT22;14353;46.070;13.222;2023-03-23T09:25:53;23.70;42.60
23377;DHT22;14353;46.070;13.222;2023-03-23T09:28:19;23.70;42.60
23377;DHT22;14353;46.070;13.222;2023-03-23T09:30:46;23.80;42.50
23377;DHT22;14353;46.070;13.222;2023-03-23T09:33:13;23.80;43.00
23377;DHT22;14353;46.070;13.222;2023-03-23T09:35:39;23.90;42.20
23377;DHT22;14353;46.070;13.222;2023-03-23T09:38:07;23.90;42.00
23377;DHT22;14353;46.070;13.222;2023-03-23T09:40:49;24.00;41.90
23377;DHT22;14353;46.070;13.222;2023-03-23T09:49:45;24.10;41.70
23377;DHT22;14353;46.070;13.222;2023-03-23T09:52:16;24.10;41.80
23377;DHT22;14353;46.070;13.222;2023-03-23T09:54:50;24.00;42.30
23377;DHT22;14353;46.070;13.222;2023-03-23T10:08:02;24.30;41.40
23377;DHT22;14353;46.070;13.222;2023-03-23T10:16:15;24.40;41.10
23377;DHT22;14353;46.070;13.222;2023-03-23T10:21:37;24.40;41.00
23377;DHT22;14353;46.070;13.222;2023-03-23T10:24:08;24.40;41.00
23377;DHT22;14353;46.070;13.222;2023-03-23T10:27:10;24.40;41.10
23377;DHT22;14353;46.070;13.222;2023-03-23T10:29:41;24.40;41.10
23377;DHT22;14353;46.070;13.222;2023-03-23T10:32:18;24.40;41.00
23377;DHT22;14353;46.070;13.222;2023-03-23T10:35:01;24.40;41.00
23377;DHT22;14353;46.070;13.222;2023-03-23T10:37:33;24.40;40.90
23377;DHT22;14353;46.070;13.222;2023-03-23T10:40:02;24.40;40.90
23377;DHT22;14353;46.070;13.222;2023-03-23T10:42:36;24.40;40.80
23377;DHT22;14353;46.070;13.222;2023-03-23T10:45:20;24.50;40.70
23377;DHT22;14353;46.070;13.222;2023-03-23T10:48:07;24.50;40.60
23377;DHT22;14353;46.070;13.222;2023-03-23T10:50:36;24.60;40.40
23377;DHT22;14353;46.070;13.222;2023-03-23T10:53:15;24.70;39.70
23377;DHT22;14353;46.070;13.222;2023-03-23T10:55:42;24.80;39.10
23377;DHT22;14353;46.070;13.222;2023-03-23T10:58:12;24.80;38.60
23377;DHT22;14353;46.070;13.222;2023-03-23T11:00:45;24.80;38.30
23377;DHT22;14353;46.070;13.222;2023-03-23T11:05:44;24.80;37.90
23377;DHT22;14353;46.070;13.222;2023-03-23T11:08:23;24.80;38.80
23377;DHT22;14353;46.070;13.222;2023-03-23T11:13:45;25.00;39.20
23377;DHT22;14353;46.070;13.222;2023-03-23T11:16:32;25.20;39.40
23377;DHT22;14353;46.070;13.222;2023-03-23T11:19:24;25.20;39.20
23377;DHT22;14353;46.070;13.222;2023-03-23T11:22:04;25.40;39.30
23377;DHT22;14353;46.070;13.222;2023-03-23T11:24:41;25.40;39.40
23377;DHT22;14353;46.070;13.222;2023-03-23T11:27:09;25.50;39.50
23377;DHT22;14353;46.070;13.222;2023-03-23T11:29:41;25.60;39.50
23377;DHT22;14353;46.070;13.222;2023-03-23T11:32:13;25.70;39.30
23377;DHT22;14353;46.070;13.222;2023-03-23T11:34:46;25.70;39.30
23377;DHT22;14353;46.070;13.222;2023-03-23T11:40:00;25.70;39.30
23377;DHT22;14353;46.070;13.222;2023-03-23T11:53:38;26.10;38.90
23377;DHT22;14353;46.070;13.222;2023-03-23T11:58:47;26.20;38.60
23377;DHT22;14353;46.070;13.222;2023-03-23T12:12:22;26.30;38.10
23377;DHT22;14353;46.070;13.222;2023-03-23T12:18:06;26.50;37.70
23377;DHT22;14353;46.070;13.222;2023-03-23T12:23:39;26.50;37.60
23377;DHT22;14353;46.070;13.222;2023-03-23T12:29:15;26.50;37.60
23377;DHT22;14353;46.070;13.222;2023-03-23T12:51:50;26.60;37.30
23377;DHT22;14353;46.070;13.222;2023-03-23T12:54:26;26.80;37.00
23377;DHT22;14353;46.070;13.222;2023-03-23T13:02:30;27.70;35.30
23377;DHT22;14353;46.070;13.222;2023-03-23T13:05:04;27.80;35.00
23377;DHT22;14353;46.070;13.222;2023-03-23T13:07:37;28.10;34.40
23377;DHT22;14353;46.070;13.222;2023-03-23T13:10:15;28.60;33.70
23377;DHT22;14353;46.070;13.222;2023-03-23T13:12:46;29.10;33.00
23377;DHT22;14353;46.070;13.222;2023-03-23T13:18:44;29.80;31.70
23377;DHT22;14353;46.070;13.222;2023-03-23T13:21:21;30.20;30.50
23377;DHT22;14353;46.070;13.222;2023-03-23T13:23:53;30.30;30.50
23377;DHT22;14353;46.070;13.222;2023-03-23T13:26:22;30.20;30.50
23377;DHT22;14353;46.070;13.222;2023-03-23T13:28:54;30.10;30.50
23377;DHT22;14353;46.070;13.222;2023-03-23T13:31:30;29.90;30.80
23377;DHT22;14353;46.070;13.222;2023-03-23T13:34:04;29.60;31.40
23377;DHT22;14353;46.070;13.222;2023-03-23T13:36:40;29.30;32.00
23377;DHT22;14353;46.070;13.222;2023-03-23T13:39:21;28.90;31.80
23377;DHT22;14353;46.070;13.222;2023-03-23T13:45:02;28.20;33.60
23377;DHT22;14353;46.070;13.222;2023-03-23T13:47:37;28.00;33.90
23377;DHT22;14353;46.070;13.222;2023-03-23T13:57:53;27.50;35.10
23377;DHT22;14353;46.070;13.222;2023-03-23T14:00:44;27.40;35.00
23377;DHT22;14353;46.070;13.222;2023-03-23T14:03:38;27.20;35.50
23377;DHT22;14353;46.070;13.222;2023-03-23T14:06:05;27.10;35.50
23377;DHT22;14353;46.070;13.222;2023-03-23T14:10:58;27.00;35.90
23377;DHT22;14353;46.070;13.222;2023-03-23T14:16:02;26.80;36.20
23377;DHT22;14353;46.070;13.222;2023-03-23T14:18:41;26.70;36.30
23377;DHT22;14353;46.070;13.222;2023-03-23T14:21:16;26.70;36.40
23377;DHT22;14353;46.070;13.222;2023-03-23T14:23:42;26.60;36.60
23377;DHT22;14353;46.070;13.222;2023-03-23T14:26:16;26.60;36.70
23377;DHT22;14353;46.070;13.222;2023-03-23T14:28:50;26.50;35.00
23377;DHT22;14353;46.070;13.222;2023-03-23T14:31:23;26.40;34.20
23377;DHT22;14353;46.070;13.222;2023-03-23T14:33:50;26.30;35.10
23377;DHT22;14353;46.070;13.222;2023-03-23T14:36:27;26.30;35.90
23377;DHT22;14353;46.070;13.222;2023-03-23T14:41:29;26.20;35.90
23377;DHT22;14353;46.070;13.222;2023-03-23T14:43:56;26.20;36.10
23377;DHT22;14353;46.070;13.222;2023-03-23T14:46:24;26.20;36.10
23377;DHT22;14353;46.070;13.222;2023-03-23T14:48:51;26.20;36.20
23377;DHT22;14353;46.070;13.222;2023-03-23T14:51:20;26.10;36.20
23377;DHT22;14353;46.070;13.222;2023-03-23T14:53:47;26.20;36.30
23377;DHT22;14353;46.070;13.222;2023-03-23T14:56:21;26.20;36.40
23377;DHT22;14353;46.070;13.222;2023-03-23T14:58:50;26.10;36.40
23377;DHT22;14353;46.070;13.222;2023-03-23T15:01:26;26.10;36.50
23377;DHT22;14353;46.070;13.222;2023-03-23T15:06:27;26.10;36.00
23377;DHT22;14353;46.070;13.222;2023-03-23T15:08:56;26.10;36.30
23377;DHT22;14353;46.070;13.222;2023-03-23T15:11:29;26.00;36.40
23377;DHT22;14353;46.070;13.222;2023-03-23T15:13:57;26.00;36.50
23377;DHT22;14353;46.070;13.222;2023-03-23T15:16:30;26.00;36.60
23377;DHT22;14353;46.070;13.222;2023-03-23T15:19:17;26.00;36.60
23377;DHT22;14353;46.070;13.222;2023-03-23T15:21:54;26.00;36.60
23377;DHT22;14353;46.070;13.222;2023-03-23T15:24:39;26.00;36.70
23377;DHT22;14353;46.070;13.222;2023-03-23T15:30:51;26.00;36.80
23377;DHT22;14353;46.070;13.222;2023-03-23T15:33:15;26.00;36.90
23377;DHT22;14353;46.070;13.222;2023-03-23T15:35:50;26.00;36.90
23377;DHT22;14353;46.070;13.222;2023-03-23T15:38:31;26.00;37.00
23377;DHT22;14353;46.070;13.222;2023-03-23T15:41:03;26.00;37.00
23377;DHT22;14353;46.070;13.222;2023-03-23T15:43:34;26.00;37.20
23377;DHT22;14353;46.070;13.222;2023-03-23T15:46:03;25.90;37.10
23377;DHT22;14353;46.070;13.222;2023-03-23T15:49:27;25.90;37.20
23377;DHT22;14353;46.070;13.222;2023-03-23T15:51:35;25.90;37.30
23377;DHT22;14353;46.070;13.222;2023-03-23T15:54:01;25.90;37.40
23377;DHT22;14353;46.070;13.222;2023-03-23T15:56:27;25.80;37.30
23377;DHT22;14353;46.070;13.222;2023-03-23T15:58:54;25.80;37.40
23377;DHT22;14353;46.070;13.222;2023-03-23T16:01:24;25.80;37.50
23377;DHT22;14353;46.070;13.222;2023-03-23T16:04:00;25.70;37.50
23377;DHT22;14353;46.070;13.222;2023-03-23T16:06:31;25.70;37.50
23377;DHT22;14353;46.070;13.222;2023-03-23T16:08:57;25.70;37.60
23377;DHT22;14353;46.070;13.222;2023-03-23T16:11:26;25.70;36.10
23377;DHT22;14353;46.070;13.222;2023-03-23T16:13:52;25.60;35.60
23377;DHT22;14353;46.070;13.222;2023-03-23T16:16:29;25.50;35.80
23377;DHT22;14353;46.070;13.222;2023-03-23T16:18:56;25.50;36.70
23377;DHT22;14353;46.070;13.222;2023-03-23T16:21:22;25.50;37.70
23377;DHT22;14353;46.070;13.222;2023-03-23T16:23:48;25.40;37.20
23377;DHT22;14353;46.070;13.222;2023-03-23T16:26:14;25.40;37.20
23377;DHT22;14353;46.070;13.222;2023-03-23T16:28:41;25.40;37.20
23377;DHT22;14353;46.070;13.222;2023-03-23T16:31:08;25.40;37.30
23377;DHT22;14353;46.070;13.222;2023-03-23T16:33:33;25.40;37.40
23377;DHT22;14353;46.070;13.222;2023-03-23T16:35:59;25.40;37.50
23377;DHT22;14353;46.070;13.222;2023-03-23T16:38:25;25.30;37.40
23377;DHT22;14353;46.070;13.222;2023-03-23T16:40:51;25.30;37.60
23377;DHT22;14353;46.070;13.222;2023-03-23T16:43:17;25.30;37.70
23377;DHT22;14353;46.070;13.222;2023-03-23T16:45:44;25.20;37.70
23377;DHT22;14353;46.070;13.222;2023-03-23T16:48:12;25.20;37.80
23377;DHT22;14353;46.070;13.222;2023-03-23T16:50:38;25.20;37.90
23377;DHT22;14353;46.070;13.222;2023-03-23T16:53:05;25.20;37.90
23377;DHT22;14353;46.070;13.222;2023-03-23T16:55:33;25.10;38.00
23377;DHT22;14353;46.070;13.222;2023-03-23T16:57:59;25.10;38.10
23377;DHT22;14353;46.070;13.222;2023-03-23T17:00:25;25.00;38.20
23377;DHT22;14353;46.070;13.222;2023-03-23T17:02:53;25.00;38.30
23377;DHT22;14353;46.070;13.222;2023-03-23T17:05:22;25.00;38.50
23377;DHT22;14353;46.070;13.222;2023-03-23T17:07:49;24.90;38.60
23377;DHT22;14353;46.070;13.222;2023-03-23T17:10:16;24.80;38.60
23377;DHT22;14353;46.070;13.222;2023-03-23T17:12:42;24.80;38.70
23377;DHT22;14353;46.070;13.222;2023-03-23T17:15:10;24.80;38.80
23377;DHT22;14353;46.070;13.222;2023-03-23T17:17:36;24.70;38.90
23377;DHT22;14353;46.070;13.222;2023-03-23T17:20:03;24.70;39.00
23377;DHT22;14353;46.070;13.222;2023-03-23T17:22:29;24.60;39.00
23377;DHT22;14353;46.070;13.222;2023-03-23T17:24:54;24.60;39.10
23377;DHT22;14353;46.070;13.222;2023-03-23T17:27:23;24.60;39.20
23377;DHT22;14353;46.070;13.222;2023-03-23T17:29:50;24.50;39.30
23377;DHT22;14353;46.070;13.222;2023-03-23T17:32:15;24.50;39.40
23377;DHT22;14353;46.070;13.222;2023-03-23T17:34:41;24.50;39.40
23377;DHT22;14353;46.070;13.222;2023-03-23T17:37:08;24.40;39.50
23377;DHT22;14353;46.070;13.222;2023-03-23T17:39:34;24.40;39.50
23377;DHT22;14353;46.070;13.222;2023-03-23T17:42:00;24.40;39.70
23377;DHT22;14353;46.070;13.222;2023-03-23T17:44:27;24.30;39.70
23377;DHT22;14353;46.070;13.222;2023-03-23T17:46:53;24.30;39.70
23377;DHT22;14353;46.070;13.222;2023-03-23T17:49:21;24.30;39.70